Time;durP1;ratioP1;P1;durP2;ratioP2;P2;SDS_P1;SDS_P2;PMS_P1;PMS_P2;Temp;Humidity;BMP_temperature;BMP_pressure;BME280_temperature;BME280_humidity;BME280_pressure;Samples;Min_cycle;Max_cycle;Signal;HPM_P1;HPM_P2
2022/06/01 00:04:35;;;;;;;;;2.00;2.00;;;;;17.15;42.16;100819.28;5056487;28;46056;-79
2022/06/01 00:07:01;;;;;;;;;4.75;4.25;;;;;17.11;42.08;100812.59;5038577;28;45737;-80
2022/06/01 00:09:26;;;;;;;;;4.00;3.75;;;;;17.12;42.12;100818.72;5056424;28;45483;-81
2022/06/01 00:11:52;;;;;;;;;4.00;4.00;;;;;17.10;42.53;100823.34;5055892;28;46724;-79
2022/06/01 00:14:18;;;;;;;;;4.50;4.00;;;;;17.10;42.18;100823.34;5056177;28;46131;-80
2022/06/01 00:16:43;;;;;;;;;4.75;4.50;;;;;17.10;42.34;100824.19;5055711;28;45516;-80
2022/06/01 00:19:13;;;;;;;;;4.00;4.00;;;;;17.12;42.43;100821.38;5037361;28;45752;-80
2022/06/01 00:22:11;;;;;;;;;6.75;5.50;;;;;17.14;42.29;100827.38;5054239;28;48219;-80
2022/06/01 00:24:24;;;;;;;;;5.50;5.50;;;;;17.11;42.17;100825.03;5055232;28;46020;-81
2022/06/01 00:26:53;;;;;;;;;5.25;4.50;;;;;17.07;42.53;100824.47;5056186;28;45719;-81
2022/06/01 00:29:21;;;;;;;;;4.75;4.50;;;;;17.02;42.90;100820.56;5055848;28;45702;-80
2022/06/01 00:31:46;;;;;;;;;4.00;4.00;;;;;17.00;42.78;100817.25;5055014;28;45727;-79
2022/06/01 00:34:12;;;;;;;;;4.00;4.00;;;;;16.98;42.65;100824.50;5055824;28;45639;-81
2022/06/01 00:36:37;;;;;;;;;4.75;4.00;;;;;16.98;42.79;100822.69;5037356;28;45667;-80
2022/06/01 00:39:03;;;;;;;;;5.25;5.25;;;;;16.90;42.85;100809.34;5055537;28;45655;-82
2022/06/01 00:41:29;;;;;;;;;4.75;4.00;;;;;17.00;42.58;100827.84;5055860;28;45768;-80
2022/06/01 00:43:55;;;;;;;;;4.25;4.25;;;;;17.01;42.66;100822.38;5058238;28;45989;-80
2022/06/01 00:49:48;;;;;;;;;4.00;3.00;;;;;16.94;43.32;100828.44;5055477;28;45635;-80
2022/06/01 00:52:15;;;;;;;;;3.75;3.75;;;;;16.92;43.12;100828.56;5055123;28;45827;-81
2022/06/01 00:54:41;;;;;;;;;4.00;3.00;;;;;16.90;43.15;100825.22;5036451;28;47194;-79
2022/06/01 00:57:14;;;;;;;;;3.50;3.50;;;;;16.89;43.58;100828.88;5054859;28;45735;-80
2022/06/01 00:59:44;;;;;;;;;3.25;3.00;;;;;16.84;43.08;100823.16;5055180;28;45460;-81
2022/06/01 01:02:09;;;;;;;;;4.00;3.75;;;;;16.72;43.82;100809.28;5055415;28;46775;-80
2022/06/01 01:04:38;;;;;;;;;3.75;2.75;;;;;16.85;43.20;100826.63;5055326;28;46171;-79
2022/06/01 01:07:09;;;;;;;;;3.00;3.00;;;;;16.79;43.42;100823.56;5055037;28;45559;-80
2022/06/01 01:09:35;;;;;;;;;2.75;2.50;;;;;16.76;43.46;100817.75;5054968;28;45573;-79
2022/06/01 01:12:06;;;;;;;;;3.25;2.00;;;;;16.82;43.25;100822.47;5024960;28;48512;-79
2022/06/01 01:14:35;;;;;;;;;2.00;2.00;;;;;16.81;43.74;100825.25;5034832;28;45802;-80
2022/06/01 01:20:24;;;;;;;;;2.50;2.00;;;;;16.81;43.67;100823.44;5034125;28;45604;-80
2022/06/01 01:23:01;;;;;;;;;2.00;2.00;;;;;16.79;43.46;100820.94;5034772;28;46525;-80
2022/06/01 01:25:33;;;;;;;;;3.75;3.00;;;;;16.73;43.51;100821.50;5034593;28;45864;-79
2022/06/01 01:28:02;;;;;;;;;2.00;2.00;;;;;16.80;43.59;100821.75;5034828;28;45553;-81
2022/06/01 01:30:38;;;;;;;;;1.50;1.50;;;;;16.79;43.53;100815.63;5034456;28;45654;-79
2022/06/01 01:33:05;;;;;;;;;3.00;2.75;;;;;16.80;43.73;100824.41;5034331;28;45659;-79
2022/06/01 01:35:31;;;;;;;;;2.00;2.00;;;;;16.70;43.67;100807.72;5034531;28;45554;-80
2022/06/01 01:37:59;;;;;;;;;2.00;2.00;;;;;16.79;43.63;100812.16;5034249;28;45724;-79
2022/06/01 01:40:25;;;;;;;;;2.00;2.00;;;;;16.68;43.64;100810.50;5049450;28;45661;-80
2022/06/01 01:42:53;;;;;;;;;2.75;2.00;;;;;16.80;43.50;100827.06;5034494;28;46499;-79
2022/06/01 01:45:25;;;;;;;;;1.00;1.00;;;;;16.77;43.38;100819.41;5034045;28;46289;-79
2022/06/01 01:47:51;;;;;;;;;2.00;2.00;;;;;16.81;43.70;100827.91;5034375;28;45697;-78
2022/06/01 01:50:18;;;;;;;;;3.00;3.00;;;;;16.78;44.06;100824.56;5034269;28;45584;-80
2022/06/01 01:52:45;;;;;;;;;3.00;2.75;;;;;16.81;44.15;100826.09;5033984;28;45643;-80
2022/06/01 01:55:27;;;;;;;;;2.75;2.00;;;;;16.80;43.95;100821.75;5034328;28;46460;-79
2022/06/01 01:57:58;;;;;;;;;4.00;3.00;;;;;16.74;44.07;100815.22;5034121;28;45535;-80
2022/06/01 02:07:17;;;;;;;;;3.00;2.00;;;;;16.62;44.26;100787.31;4952868;28;46088;-79
2022/06/01 02:12:42;;;;;;;;;4.00;3.00;;;;;16.74;44.55;100799.34;4953010;28;45647;-79
2022/06/01 02:15:28;;;;;;;;;2.25;2.25;;;;;16.69;44.84;100798.97;4953166;28;45678;-77
2022/06/01 02:18:00;;;;;;;;;3.00;3.00;;;;;16.64;44.78;100787.13;4952957;28;46230;-80
2022/06/01 02:20:51;;;;;;;;;3.75;3.00;;;;;16.64;44.82;100795.91;4952853;28;45758;-81
2022/06/01 02:23:17;;;;;;;;;3.00;3.00;;;;;16.62;44.85;100797.03;4951755;28;45967;-79
2022/06/01 02:25:48;;;;;;;;;3.75;3.00;;;;;16.57;44.84;100786.03;4952800;28;46647;-79
2022/06/01 02:28:14;;;;;;;;;3.00;3.00;;;;;16.52;45.02;100786.44;4952827;28;45716;-80
2022/06/01 02:30:42;;;;;;;;;3.75;3.00;;;;;16.50;44.92;100783.13;4952961;28;45768;-79
2022/06/01 02:33:21;;;;;;;;;4.75;3.50;;;;;16.53;45.17;100787.28;4952883;28;45788;-80
2022/06/01 02:35:51;;;;;;;;;3.25;2.25;;;;;16.42;45.27;100785.63;4945102;28;45765;-81
2022/06/01 02:38:23;;;;;;;;;3.00;3.00;;;;;16.43;45.21;100779.38;4952347;28;45711;-81
2022/06/01 02:40:49;;;;;;;;;3.00;2.25;;;;;16.46;45.15;100786.19;5008671;28;45785;-80
2022/06/01 02:43:15;;;;;;;;;3.00;2.00;;;;;16.43;45.37;100773.25;5033697;28;45889;-80
2022/06/01 02:45:40;;;;;;;;;4.00;4.00;;;;;16.42;45.33;100774.22;5015070;28;47787;-80
2022/06/01 02:48:06;;;;;;;;;2.25;2.25;;;;;16.40;45.33;100773.53;5033431;28;46303;-80
2022/06/01 02:50:34;;;;;;;;;2.25;2.00;;;;;16.38;45.80;100776.31;5033525;28;45803;-79
2022/06/01 02:53:00;;;;;;;;;2.25;2.25;;;;;16.36;46.01;100778.25;5033497;28;45635;-81
2022/06/01 02:55:28;;;;;;;;;3.00;3.00;;;;;16.38;45.77;100784.25;5033385;28;45909;-80
2022/06/01 02:57:54;;;;;;;;;3.25;3.00;;;;;16.31;45.65;100776.03;5033645;28;45622;-81
2022/06/01 03:00:33;;;;;;;;;3.00;3.00;;;;;16.25;46.00;100770.47;5033275;28;45718;-80
2022/06/01 03:03:01;;;;;;;;;3.00;2.50;;;;;16.33;46.07;100768.81;5033366;28;45729;-80
2022/06/01 03:05:30;;;;;;;;;2.75;2.25;;;;;16.30;46.14;100769.06;5033691;28;46553;-80
2022/06/01 03:07:56;;;;;;;;;3.25;3.00;;;;;16.23;46.48;100767.16;5033255;28;46653;-81
2022/06/01 03:10:22;;;;;;;;;4.00;4.00;;;;;16.22;46.53;100770.78;5033344;28;45852;-80
2022/06/01 03:12:48;;;;;;;;;5.00;3.75;;;;;16.15;46.90;100774.94;5033243;28;45606;-81
2022/06/01 03:15:17;;;;;;;;;3.75;3.00;;;;;16.09;47.16;100775.50;5033255;28;46668;-80
2022/06/01 03:17:44;;;;;;;;;3.00;3.00;;;;;16.00;47.14;100787.75;5032643;28;46584;-80
2022/06/01 03:20:11;;;;;;;;;3.75;3.00;;;;;15.95;47.36;100788.19;5015221;28;45761;-80
2022/06/01 03:22:39;;;;;;;;;4.00;3.50;;;;;15.90;47.29;100793.06;5035374;28;45575;-80
2022/06/01 03:25:07;;;;;;;;;3.00;2.50;;;;;15.82;47.54;100787.59;5018302;28;46791;-79
2022/06/01 03:27:34;;;;;;;;;2.00;2.00;;;;;15.73;47.73;100782.31;5036150;28;46258;-80
2022/06/01 03:29:59;;;;;;;;;3.00;3.00;;;;;15.67;48.04;100782.88;5036333;28;45602;-78
2022/06/01 03:32:24;;;;;;;;;2.50;2.00;;;;;15.61;48.00;100783.41;5036315;28;45727;-80
2022/06/01 03:34:50;;;;;;;;;3.00;3.00;;;;;15.50;48.31;100779.91;5018539;28;45652;-79
2022/06/01 03:37:16;;;;;;;;;4.75;3.00;;;;;15.41;48.35;100777.25;5035934;28;45697;-79
2022/06/01 03:39:41;;;;;;;;;3.75;3.75;;;;;15.37;48.54;100787.25;5035880;28;45740;-81
2022/06/01 03:42:07;;;;;;;;;3.00;3.00;;;;;15.27;48.91;100778.47;5036065;28;45682;-80
2022/06/01 03:47:16;;;;;;;;;3.50;3.25;;;;;15.22;49.21;100798.31;5035588;28;45897;-80
2022/06/01 03:49:42;;;;;;;;;4.00;3.00;;;;;15.07;49.25;100789.91;5036166;28;45627;-77
2022/06/01 03:52:09;;;;;;;;;4.00;4.00;;;;;15.08;49.28;100797.72;5036130;28;45464;-80
2022/06/01 03:54:35;;;;;;;;;4.75;3.00;;;;;15.11;49.38;100807.97;5036169;28;45810;-80
2022/06/01 03:57:01;;;;;;;;;4.25;3.75;;;;;14.96;49.49;100784.72;5017554;28;48255;-79
2022/06/01 03:59:26;;;;;;;;;3.75;3.75;;;;;14.93;49.87;100793.75;5035664;28;45595;-80
2022/06/01 04:01:52;;;;;;;;;2.50;2.00;;;;;14.95;50.08;100810.28;5035438;28;45774;-81
2022/06/01 04:04:17;;;;;;;;;4.00;3.00;;;;;14.82;49.97;100795.66;5035988;28;45609;-80
2022/06/01 04:06:42;;;;;;;;;3.00;3.00;;;;;14.87;50.38;100815.38;5035714;28;46198;-77
2022/06/01 04:09:08;;;;;;;;;5.00;3.25;;;;;14.79;50.63;100807.28;5017334;28;45711;-80
2022/06/01 04:11:33;;;;;;;;;3.50;2.00;;;;;14.76;50.34;100806.72;5017272;28;46010;-80
2022/06/01 04:13:58;;;;;;;;;3.25;3.00;;;;;14.70;50.53;100810.72;5014443;28;47447;-79
2022/06/01 04:16:24;;;;;;;;;3.75;3.75;;;;;14.64;50.87;100798.03;5033171;28;46193;-80
2022/06/01 04:22:13;;;;;;;;;3.25;3.25;;;;;14.69;51.18;100824.84;5036511;28;45621;-82
2022/06/01 04:24:39;;;;;;;;;3.00;3.00;;;;;14.66;50.94;100818.06;5035411;28;45648;-80
2022/06/01 04:27:08;;;;;;;;;4.00;3.75;;;;;14.65;51.31;100819.03;5036064;28;45554;-79
2022/06/01 04:29:34;;;;;;;;;4.00;4.00;;;;;14.70;51.32;100829.19;5035948;28;45623;-79
2022/06/01 04:38:47;;;;;;;;;3.25;3.00;;;;;14.64;51.07;100834.97;4972922;28;46010;-79
2022/06/01 04:41:13;;;;;;;;;4.00;4.00;;;;;14.65;51.40;100839.28;4962089;28;45594;-81
2022/06/01 04:43:38;;;;;;;;;4.00;3.50;;;;;14.65;51.65;100849.81;4954975;28;45580;-81
2022/06/01 04:46:04;;;;;;;;;2.75;2.75;;;;;14.65;51.74;100844.56;4954586;28;46384;-81
2022/06/01 04:48:29;;;;;;;;;5.00;5.00;;;;;14.51;51.58;100832.53;4954455;28;46356;-79
2022/06/01 04:50:57;;;;;;;;;2.50;2.50;;;;;14.59;51.98;100850.34;4954376;28;45681;-81
2022/06/01 04:53:22;;;;;;;;;4.00;4.00;;;;;14.53;51.33;100845.56;4954441;28;45725;-81
2022/06/01 04:55:48;;;;;;;;;5.50;4.50;;;;;14.60;51.61;100863.41;4954660;28;46182;-80
2022/06/01 04:58:13;;;;;;;;;4.75;4.75;;;;;14.55;51.97;100849.78;4954187;28;46440;-79
2022/06/01 05:00:41;;;;;;;;;4.25;3.50;;;;;14.63;51.76;100865.78;4954666;28;45742;-81
2022/06/01 05:03:07;;;;;;;;;4.00;4.00;;;;;14.56;51.60;100853.25;4938326;28;45661;-81
2022/06/01 05:05:36;;;;;;;;;4.00;4.00;;;;;14.64;51.42;100859.53;4954217;28;45564;-79
2022/06/01 05:08:01;;;;;;;;;3.25;3.25;;;;;14.65;51.72;100857.75;4954152;28;46070;-79
2022/06/01 05:10:28;;;;;;;;;5.25;5.00;;;;;14.72;51.79;100868.63;4954287;28;45712;-81
2022/06/01 05:12:53;;;;;;;;;6.00;6.00;;;;;14.64;51.90;100864.81;5030057;28;45640;-80
2022/06/01 05:15:19;;;;;;;;;11.75;10.75;;;;;14.70;51.54;100874.00;5016454;28;47463;-77
2022/06/01 05:17:45;;;;;;;;;5.00;4.00;;;;;14.74;51.47;100875.41;5034808;28;46492;-78
2022/06/01 05:23:32;;;;;;;;;7.25;5.75;;;;;14.76;51.36;100875.28;5035009;28;45707;-79
2022/06/01 05:25:58;;;;;;;;;5.00;4.50;;;;;14.75;51.71;100874.47;5034710;28;45727;-80
2022/06/01 05:28:26;;;;;;;;;5.00;5.00;;;;;14.62;51.83;100850.94;5034938;28;46225;-80
2022/06/01 05:30:59;;;;;;;;;5.25;5.25;;;;;14.79;51.65;100867.16;5034797;28;45794;-82
2022/06/01 05:33:25;;;;;;;;;6.25;6.25;;;;;14.67;51.55;100843.47;5035009;28;45854;-80
2022/06/01 05:35:50;;;;;;;;;5.00;5.00;;;;;14.69;51.51;100849.44;5034666;28;46953;-79
2022/06/01 05:38:16;;;;;;;;;3.00;2.75;;;;;14.91;51.79;100874.84;5034849;28;45694;-79
2022/06/01 05:40:41;;;;;;;;;4.00;4.00;;;;;14.93;51.62;100869.44;5016589;28;45621;-80
2022/06/01 05:43:10;;;;;;;;;4.00;4.00;;;;;14.97;51.07;100871.69;5034987;28;45849;-81
2022/06/01 05:45:35;;;;;;;;;3.25;3.00;;;;;15.01;51.14;100869.59;5034233;28;45738;-80
2022/06/01 05:48:01;;;;;;;;;2.00;2.00;;;;;14.93;51.25;100843.06;5035200;28;46284;-80
2022/06/01 05:53:48;;;;;;;;;3.00;3.00;;;;;15.16;50.93;100864.84;5034528;28;45690;-80
2022/06/01 05:56:14;;;;;;;;;4.25;3.50;;;;;15.19;50.86;100868.03;5016202;28;47326;-78
2022/06/01 05:58:39;;;;;;;;;2.25;2.25;;;;;15.21;50.67;100857.34;5034438;28;45715;-80
2022/06/01 06:01:07;;;;;;;;;4.00;2.75;;;;;15.24;50.51;100860.56;5034407;28;45622;-80
2022/06/01 06:03:34;;;;;;;;;2.00;2.00;;;;;15.31;50.19;100866.16;5034232;28;45908;-81
2022/06/01 06:06:34;;;;;;;;;3.25;1.75;;;;;15.30;50.37;100860.03;5034047;28;45631;-80
2022/06/01 06:08:55;;;;;;;;;2.00;2.00;;;;;15.37;49.89;100860.34;5029826;28;46207;-80
2022/06/01 06:11:25;;;;;;;;;2.00;2.00;;;;;15.36;49.79;100861.31;5039386;28;45686;-78
2022/06/01 06:13:51;;;;;;;;;2.00;2.00;;;;;15.35;49.67;100857.81;5054202;28;45526;-80
2022/06/01 06:16:17;;;;;;;;;2.25;2.00;;;;;15.43;49.75;100875.66;5054006;28;46567;-81
2022/06/01 06:18:43;;;;;;;;;2.00;1.25;;;;;15.41;49.44;100859.94;5053432;28;46047;-80
2022/06/01 06:21:09;;;;;;;;;2.75;1.00;;;;;15.46;48.72;100867.44;5035938;28;45761;-81
2022/06/01 06:23:34;;;;;;;;;1.50;1.00;;;;;15.47;48.83;100864.69;5054435;28;45732;-78
2022/06/01 06:26:01;;;;;;;;;3.00;2.00;;;;;15.52;48.90;100867.78;5053821;28;46503;-80
2022/06/01 06:28:27;;;;;;;;;2.00;1.00;;;;;15.48;48.62;100849.69;5054481;28;45866;-82
2022/06/01 06:30:53;;;;;;;;;1.00;1.00;;;;;15.59;48.75;100856.69;5054853;28;45673;-79
2022/06/01 06:33:18;;;;;;;;;1.00;1.00;;;;;15.64;48.48;100860.59;5054464;28;45614;-81
2022/06/01 06:39:06;;;;;;;;;2.00;2.00;;;;;15.72;48.25;100875.75;5053992;28;45723;-80
2022/06/01 06:41:35;;;;;;;;;2.00;2.00;;;;;15.73;48.35;100870.34;5055157;28;45695;-79
2022/06/01 06:44:01;;;;;;;;;1.00;1.00;;;;;15.75;48.31;100867.56;5054138;28;45451;-81
2022/06/01 06:46:26;;;;;;;;;2.00;1.50;;;;;15.76;48.01;100866.59;5053853;28;45606;-79
2022/06/01 06:54:58;;;;;;;;;1.00;1.00;;;;;15.94;47.99;100875.50;5053666;28;45475;-81
2022/06/01 06:57:23;;;;;;;;;1.25;1.25;;;;;15.96;47.97;100876.22;5038462;28;47942;-79
2022/06/01 06:59:49;;;;;;;;;1.00;1.00;;;;;16.02;47.63;100888.06;5057105;28;45724;-79
2022/06/01 07:02:16;;;;;;;;;2.00;2.00;;;;;15.94;47.58;100867.59;5038937;28;46149;-81
2022/06/01 07:04:46;;;;;;;;;2.00;1.00;;;;;16.04;47.47;100891.38;5057064;28;45606;-80
2022/06/01 07:07:12;;;;;;;;;2.00;2.00;;;;;16.00;47.61;100882.06;5057547;28;46616;-80
2022/06/01 07:09:37;;;;;;;;;1.25;1.00;;;;;16.06;47.61;100884.16;5057314;28;45627;-78
2022/06/01 07:12:04;;;;;;;;;1.00;1.00;;;;;16.01;47.42;100873.16;5056637;28;45534;-79
2022/06/01 07:14:30;;;;;;;;;2.00;1.00;;;;;16.17;47.52;100897.25;5057091;28;45749;-78
2022/06/01 07:16:59;;;;;;;;;1.00;1.00;;;;;16.18;47.37;100899.78;5056999;28;45715;-78
2022/06/01 07:19:26;;;;;;;;;2.00;1.75;;;;;16.19;47.24;100895.31;5038651;28;47165;-78
2022/06/01 07:21:51;;;;;;;;;2.00;1.75;;;;;16.23;47.00;100894.91;5056848;28;45884;-79
2022/06/01 07:24:17;;;;;;;;;2.25;1.00;;;;;16.27;47.38;100890.16;5057140;28;45672;-78
2022/06/01 07:26:44;;;;;;;;;3.00;2.00;;;;;16.21;47.09;100880.97;5056349;28;46486;-77
2022/06/01 07:29:10;;;;;;;;;1.25;1.25;;;;;16.38;47.14;100900.59;5056433;28;46075;-81
2022/06/01 07:31:36;;;;;;;;;2.50;2.50;;;;;16.39;47.04;100891.69;5056506;28;45677;-78
2022/06/01 07:34:03;;;;;;;;;2.50;2.25;;;;;16.43;46.71;100898.38;5056103;28;45613;-79
2022/06/01 07:45:18;;;;;;;;;4.00;3.00;;;;;16.57;46.44;100897.13;5055880;28;45571;-80
2022/06/01 07:47:44;;;;;;;;;2.00;2.00;;;;;16.64;46.56;100908.84;5056574;28;46323;-78
2022/06/01 07:50:10;;;;;;;;;3.00;2.75;;;;;16.61;46.86;100898.53;5058241;28;45977;-79
2022/06/01 07:52:35;;;;;;;;;2.75;2.75;;;;;16.67;46.38;100898.81;5058336;28;45684;-78
2022/06/01 07:55:01;;;;;;;;;3.00;3.00;;;;;16.66;46.63;100904.25;5058953;28;45721;-78
2022/06/01 07:57:27;;;;;;;;;2.00;2.00;;;;;16.72;46.74;100903.69;5060223;28;45838;-78
2022/06/01 07:59:52;;;;;;;;;4.75;3.00;;;;;16.67;46.49;100898.00;5060493;28;45738;-81
2022/06/01 08:02:18;;;;;;;;;3.50;3.00;;;;;16.64;46.58;100885.88;5061172;28;45645;-81
2022/06/01 08:04:43;;;;;;;;;3.00;3.00;;;;;16.66;46.61;100883.09;5062044;28;45507;-80
2022/06/01 08:07:09;;;;;;;;;2.00;2.00;;;;;16.79;46.65;100899.47;5061018;28;45723;-80
2022/06/01 08:09:35;;;;;;;;;2.50;2.50;;;;;16.83;46.58;100900.88;5043210;28;47038;-79
2022/06/01 08:14:44;;;;;;;;;3.00;3.00;;;;;16.75;46.24;100885.72;5061280;28;45751;-79
2022/06/01 08:17:10;;;;;;;;;3.00;3.00;;;;;16.80;46.24;100887.91;5061117;28;46470;-80
2022/06/01 08:19:35;;;;;;;;;1.75;1.25;;;;;16.85;46.59;100893.63;5061911;28;45606;-80
2022/06/01 08:22:00;;;;;;;;;3.75;2.00;;;;;16.86;46.67;100895.31;5062209;28;45654;-80
2022/06/01 08:24:26;;;;;;;;;3.00;3.00;;;;;16.92;46.21;100896.53;5062129;28;45869;-79
2022/06/01 08:26:51;;;;;;;;;2.50;2.00;;;;;16.93;46.63;100895.56;5043689;28;48299;-81
2022/06/01 08:29:17;;;;;;;;;3.50;3.00;;;;;17.02;46.56;100900.00;5043774;28;47157;-80
2022/06/01 08:31:43;;;;;;;;;2.50;2.00;;;;;17.06;46.56;100901.38;5062221;28;45613;-82
2022/06/01 08:34:10;;;;;;;;;3.75;2.50;;;;;17.11;46.65;100896.50;5061502;28;45451;-81
2022/06/01 08:39:57;;;;;;;;;3.25;2.75;;;;;17.15;46.16;100882.00;5061542;28;45940;-78
2022/06/01 08:42:23;;;;;;;;;2.50;2.50;;;;;17.16;46.07;100888.97;5042818;28;45522;-77
2022/06/01 08:44:51;;;;;;;;;3.00;3.00;;;;;17.20;46.28;100893.81;5061619;28;45515;-79
2022/06/01 08:47:26;;;;;;;;;3.00;2.00;;;;;17.26;46.02;100892.41;5061621;28;45738;-79
2022/06/01 08:49:54;;;;;;;;;3.00;2.00;;;;;17.31;46.36;100891.97;5061261;28;46398;-77
2022/06/01 08:52:23;;;;;;;;;1.75;1.75;;;;;17.34;46.09;100895.16;5061956;28;45632;-82
2022/06/01 08:54:48;;;;;;;;;1.00;1.00;;;;;17.42;45.67;100895.28;5061742;28;45481;-78
2022/06/01 08:57:21;;;;;;;;;2.00;2.00;;;;;17.41;45.28;100890.13;5059722;28;46360;-78
2022/06/01 09:00:01;;;;;;;;;1.75;1.75;;;;;17.41;44.27;100874.22;5058908;28;46335;-79
2022/06/01 09:03:01;;;;;;;;;1.00;1.00;;;;;17.48;44.64;100878.81;5037108;28;45644;-79
2022/06/01 09:05:45;;;;;;;;;2.00;2.00;;;;;17.60;44.68;100892.69;5056761;28;45462;-79
2022/06/01 09:08:27;;;;;;;;;3.00;3.00;;;;;17.66;44.52;100897.41;5056044;28;46810;-79
2022/06/01 09:11:07;;;;;;;;;2.00;2.00;;;;;17.71;45.10;100902.25;5058828;27;46628;-79
2022/06/01 09:13:42;;;;;;;;;2.75;2.00;;;;;17.76;44.80;100897.38;5039489;28;45620;-79
2022/06/01 09:16:17;;;;;;;;;1.75;1.25;;;;;17.79;44.56;100894.41;5055721;28;45475;-79
2022/06/01 09:18:55;;;;;;;;;2.00;2.00;;;;;17.82;44.01;100894.09;5055235;28;46699;-78
2022/06/01 09:24:29;;;;;;;;;2.00;2.00;;;;;17.85;43.26;100896.47;5055272;28;45957;-78
2022/06/01 09:26:59;;;;;;;;;3.00;2.25;;;;;17.91;43.77;100893.25;5055651;28;46053;-79
2022/06/01 09:29:29;;;;;;;;;1.00;1.00;;;;;17.96;43.54;100906.88;5057290;28;45656;-79
2022/06/01 09:31:58;;;;;;;;;2.00;2.00;;;;;18.00;43.27;100910.91;5056114;28;46162;-76
2022/06/01 09:34:46;;;;;;;;;1.00;1.00;;;;;18.02;43.02;100914.25;5054889;28;45756;-76
2022/06/01 09:37:24;;;;;;;;;2.00;1.00;;;;;18.03;42.99;100899.97;5058748;28;45830;-78
2022/06/01 09:39:52;;;;;;;;;1.00;1.00;;;;;18.09;42.52;100912.63;5058222;28;45798;-77
2022/06/01 09:42:37;;;;;;;;;2.50;2.00;;;;;18.09;42.39;100904.69;5058624;28;46491;-78
2022/06/01 09:45:12;;;;;;;;;3.00;1.25;;;;;18.16;42.57;100903.09;5059984;28;45534;-79
2022/06/01 09:47:43;;;;;;;;;1.00;1.00;;;;;18.12;42.20;100887.66;5060806;28;45572;-78
2022/06/01 09:53:39;;;;;;;;;2.00;2.00;;;;;18.37;42.26;100894.84;5059998;28;46081;-77
2022/06/01 09:56:05;;;;;;;;;1.00;1.00;;;;;18.44;42.47;100899.41;5059687;28;45604;-78
2022/06/01 10:10:27;;;;;;;;;2.00;1.00;;;;;18.63;42.53;100893.09;5054076;28;45535;-78
2022/06/01 10:13:01;;;;;;;;;2.00;2.00;;;;;18.68;42.06;100887.31;5053940;28;46443;-79
2022/06/01 10:15:30;;;;;;;;;1.00;1.00;;;;;18.72;41.97;100896.69;5055520;28;45462;-76
2022/06/01 10:18:02;;;;;;;;;2.00;2.00;;;;;18.74;42.24;100884.91;5055389;28;45547;-78
2022/06/01 10:27:12;;;;;;;;;3.00;2.00;;;;;18.98;41.14;100902.84;5054208;28;45738;-79
2022/06/01 10:29:45;;;;;;;;;2.00;2.00;;;;;18.97;41.11;100877.25;5053984;28;45635;-79
2022/06/01 10:32:30;;;;;;;;;2.00;2.00;;;;;18.99;40.61;100877.94;5057252;28;45824;-78
2022/06/01 10:38:30;;;;;;;;;3.00;2.00;;;;;19.16;40.95;100878.88;4994898;28;46037;-79
2022/06/01 10:41:07;;;;;;;;;2.00;2.00;;;;;19.26;40.36;100882.25;4995281;28;45611;-78
2022/06/01 10:44:04;;;;;;;;;2.25;2.00;;;;;19.35;40.29;100889.25;4997041;28;45793;-79
2022/06/01 10:46:35;;;;;;;;;0.00;0.00;;;;;19.39;40.06;100881.78;4998663;28;45744;-79
2022/06/01 10:49:31;;;;;;;;;2.00;1.00;;;;;19.38;39.40;100880.97;4998406;28;46254;-81
2022/06/01 10:55:30;;;;;;;;;2.00;2.00;;;;;19.45;39.90;100866.09;4999175;28;45891;-81
2022/06/01 10:57:59;;;;;;;;;1.25;1.25;;;;;19.50;39.83;100871.75;4998452;28;45605;-79
2022/06/01 11:00:41;;;;;;;;;3.00;3.00;;;;;19.53;39.69;100862.63;4997629;28;47677;-82
2022/06/01 11:03:36;;;;;;;;;2.50;2.00;;;;;19.57;39.61;100871.94;4999774;28;45808;-81
2022/06/01 11:06:30;;;;;;;;;2.00;2.00;;;;;19.57;39.76;100867.47;4999695;28;45584;-80
2022/06/01 11:08:58;;;;;;;;;2.00;2.00;;;;;19.60;39.80;100855.66;5000228;28;46845;-79
2022/06/01 11:11:27;;;;;;;;;2.00;2.00;;;;;19.64;39.65;100860.53;5006073;28;46440;-77
2022/06/01 11:14:22;;;;;;;;;2.25;2.25;;;;;19.67;39.29;100854.03;5022521;28;45538;-79
2022/06/01 11:16:53;;;;;;;;;1.00;1.00;;;;;19.70;39.68;100869.69;5041891;28;45495;-79
2022/06/01 11:19:53;;;;;;;;;2.75;2.25;;;;;19.69;39.09;100860.03;5040461;28;46795;-79
2022/06/01 11:22:56;;;;;;;;;2.00;2.00;;;;;19.68;39.08;100861.84;5038656;28;46507;-80
2022/06/01 11:25:37;;;;;;;;;2.00;2.00;;;;;19.67;39.32;100869.97;5037455;28;45662;-79
2022/06/01 11:28:31;;;;;;;;;1.00;1.00;;;;;19.67;39.13;100854.03;5018697;28;45567;-78
2022/06/01 11:31:03;;;;;;;;;1.00;1.00;;;;;19.68;38.71;100848.56;5037369;28;45862;-79
2022/06/01 11:34:00;;;;;;;;;1.00;1.00;;;;;19.65;38.42;100837.41;5038213;28;46505;-78
2022/06/01 11:40:05;;;;;;;;;2.00;2.00;;;;;19.75;38.79;100846.09;5036786;28;45516;-78
2022/06/01 11:42:37;;;;;;;;;2.00;2.00;;;;;19.78;38.36;100850.25;5035555;28;45643;-76
2022/06/01 11:45:31;;;;;;;;;1.00;1.00;;;;;19.76;37.83;100829.13;5037128;28;46000;-77
2022/06/01 11:48:07;;;;;;;;;3.00;2.00;;;;;19.81;38.16;100845.41;5035714;28;45780;-76
2022/06/01 11:50:32;;;;;;;;;2.50;1.00;;;;;19.83;38.01;100845.25;5035970;28;45711;-80
2022/06/01 11:56:33;;;;;;;;;3.00;2.00;;;;;19.90;37.58;100833.81;5035765;28;45624;-76
2022/06/01 11:59:14;;;;;;;;;3.00;1.75;;;;;19.96;37.84;100848.28;5035404;28;45704;-77
2022/06/01 12:01:45;;;;;;;;;1.00;1.00;;;;;19.98;37.56;100825.00;5035448;28;45829;-78
2022/06/01 12:04:22;;;;;;;;;1.00;1.00;;;;;20.04;37.70;100825.19;5035364;28;46092;-80
2022/06/01 12:06:58;;;;;;;;;1.00;1.00;;;;;20.11;37.52;100830.69;5035519;28;45887;-77
2022/06/01 12:09:47;;;;;;;;;2.00;1.50;;;;;20.14;36.84;100833.00;5036155;28;45581;-78
2022/06/01 12:12:32;;;;;;;;;1.00;1.00;;;;;20.21;36.78;100833.19;5039059;28;45647;-79
2022/06/01 12:15:03;;;;;;;;;1.50;1.50;;;;;20.26;36.10;100828.19;5036254;28;45765;-79
2022/06/01 12:17:33;;;;;;;;;1.00;1.00;;;;;20.31;35.93;100841.81;5016073;28;45829;-79
2022/06/01 12:20:10;;;;;;;;;1.00;0.75;;;;;20.34;35.76;100828.25;5035706;28;45583;-79
2022/06/01 12:28:51;;;;;;;;;0.50;0.50;;;;;20.40;35.58;100831.06;5035441;28;45930;-79
2022/06/01 12:31:26;;;;;;;;;1.25;1.00;;;;;20.50;35.47;100837.06;5035723;28;45712;-80
2022/06/01 12:34:24;;;;;;;;;2.25;2.00;;;;;20.52;35.71;100829.72;5035652;28;45666;-79
2022/06/01 12:40:17;;;;;;;;;3.50;2.00;;;;;20.62;36.27;100831.38;4954363;28;45727;-80
2022/06/01 12:42:53;;;;;;;;;2.00;1.50;;;;;20.63;36.19;100823.19;4954439;28;45779;-80
2022/06/01 12:45:21;;;;;;;;;1.25;1.25;;;;;20.68;35.85;100833.34;4954787;28;45747;-79
2022/06/01 12:48:01;;;;;;;;;0.50;0.50;;;;;20.66;35.53;100814.06;4954543;28;46977;-80
2022/06/01 12:50:30;;;;;;;;;2.00;2.00;;;;;20.75;35.97;100832.50;4937865;28;46130;-81
2022/06/01 12:56:21;;;;;;;;;1.25;1.00;;;;;20.77;34.83;100829.69;4954439;28;45582;-81
2022/06/01 12:58:51;;;;;;;;;2.00;1.50;;;;;20.76;35.31;100822.69;4954082;28;46574;-80
2022/06/01 13:01:19;;;;;;;;;1.75;0.75;;;;;20.81;34.92;100831.00;4954216;28;45921;-81
2022/06/01 13:03:50;;;;;;;;;2.00;2.00;;;;;20.82;34.87;100843.31;4954046;28;45814;-80
2022/06/01 13:06:22;;;;;;;;;1.75;1.50;;;;;20.82;35.12;100835.34;4937837;28;45590;-81
2022/06/01 13:12:18;;;;;;;;;2.00;2.00;;;;;20.83;34.61;100824.53;4983321;28;45744;-80
2022/06/01 13:14:45;;;;;;;;;0.75;0.75;;;;;20.81;34.80;100820.34;5035296;28;45827;-80
2022/06/01 13:17:18;;;;;;;;;1.25;1.25;;;;;20.84;34.71;100812.84;5017172;28;45771;-79
2022/06/01 13:19:56;;;;;;;;;2.00;1.75;;;;;20.93;34.79;100814.50;5034514;28;46619;-80
2022/06/01 13:22:29;;;;;;;;;1.00;1.00;;;;;21.00;34.63;100811.16;5034587;28;45949;-79
2022/06/01 13:25:00;;;;;;;;;1.75;1.50;;;;;21.14;34.55;100821.09;5034836;28;45555;-80
2022/06/01 13:27:29;;;;;;;;;2.25;2.00;;;;;21.21;34.40;100827.44;5034788;28;45621;-80
2022/06/01 13:29:59;;;;;;;;;1.75;1.25;;;;;21.18;34.35;100804.59;5037839;28;45691;-80
2022/06/01 13:32:41;;;;;;;;;3.00;3.00;;;;;21.29;34.23;100822.88;5038624;28;45935;-79
2022/06/01 13:35:34;;;;;;;;;1.75;1.75;;;;;21.35;34.07;100829.38;5036201;28;45492;-80
2022/06/01 13:38:02;;;;;;;;;2.00;2.00;;;;;21.33;34.09;100820.69;5035174;28;45511;-81